BCS231P LZIB-LBSF
Flight info
| Callsign | BCS231P |
|---|---|
| Flight time | 1h 4m |
| Altitude | 31000 |
| Route | VAMOG2Z/04 VAMOG DCT SIRDU DCT BABIT DCT BGD DCT RAVAK DCT NISVA NISVA5D |
| Aircraft | A306/H-SDE3FGHIRWY/LB1 |
Departure
| Time | 2026-04-27 14:29 |
|---|---|
| Airport | M. R. Štefánik Airport (LZIB) |
Arrival
| Time | 2026-04-27 15:33 |
|---|---|
| Airport | Sofia Airport (LBSF) |
| Time | Latitude | Longitude | Altitude | Speed | Heading |
|---|---|---|---|---|---|
| 2026-04-27 14:00 | 48.17167 | 17.20442 | 437 ft | 0 kts | 314° |
| 2026-04-27 14:19 | 48.17153 | 17.20464 | 422 ft | 4 kts | 314° |
| 2026-04-27 14:19 | 48.17137 | 17.20488 | 426 ft | 4 kts | 301° |
| 2026-04-27 14:19 | 48.17132 | 17.20518 | 425 ft | 4 kts | 243° |
| 2026-04-27 14:19 | 48.17148 | 17.20547 | 422 ft | 4 kts | 220° |
| 2026-04-27 14:20 | 48.17160 | 17.20564 | 422 ft | 0 kts | 224° |
| 2026-04-27 14:23 | 48.17158 | 17.20560 | 427 ft | 4 kts | 224° |
| 2026-04-27 14:23 | 48.17129 | 17.20518 | 423 ft | 6 kts | 224° |
| 2026-04-27 14:23 | 48.17084 | 17.20454 | 431 ft | 9 kts | 224° |
| 2026-04-27 14:23 | 48.17037 | 17.20386 | 430 ft | 9 kts | 224° |
| 2026-04-27 14:24 | 48.16999 | 17.20331 | 422 ft | 7 kts | 224° |
| 2026-04-27 14:24 | 48.16967 | 17.20285 | 432 ft | 5 kts | 224° |
| 2026-04-27 14:24 | 48.16944 | 17.20252 | 425 ft | 4 kts | 224° |
| 2026-04-27 14:24 | 48.16928 | 17.20229 | 423 ft | 2 kts | 224° |
| 2026-04-27 14:25 | 48.16916 | 17.20211 | 423 ft | 4 kts | 224° |
| 2026-04-27 14:25 | 48.16857 | 17.20164 | 433 ft | 10 kts | 175° |
| 2026-04-27 14:25 | 48.16785 | 17.20257 | 425 ft | 31 kts | 135° |
| 2026-04-27 14:25 | 48.16680 | 17.20362 | 432 ft | 5 kts | 199° |
| 2026-04-27 14:26 | 48.16648 | 17.20323 | 435 ft | 6 kts | 218° |
| 2026-04-27 14:26 | 48.16616 | 17.20286 | 427 ft | 9 kts | 220° |
| 2026-04-27 14:26 | 48.16555 | 17.20189 | 425 ft | 20 kts | 228° |
| 2026-04-27 14:26 | 48.16454 | 17.20054 | 424 ft | 18 kts | 221° |
| 2026-04-27 14:27 | 48.16364 | 17.19935 | 440 ft | 16 kts | 221° |
| 2026-04-27 14:27 | 48.16283 | 17.19830 | 440 ft | 16 kts | 220° |
| 2026-04-27 14:27 | 48.16181 | 17.19811 | 431 ft | 14 kts | 148° |
| 2026-04-27 14:27 | 48.16120 | 17.19907 | 435 ft | 11 kts | 120° |
| 2026-04-27 14:28 | 48.16127 | 17.20008 | 429 ft | 12 kts | 47° |
| 2026-04-27 14:28 | 48.16266 | 17.20215 | 425 ft | 57 kts | 43° |
| 2026-04-27 14:28 | 48.16717 | 17.20861 | 431 ft | 120 kts | 44° |
| 2026-04-27 14:28 | 48.17455 | 17.21919 | 477 ft | 171 kts | 44° |
| 2026-04-27 14:29 | 48.18379 | 17.23252 | 962 ft | 197 kts | 44° |
| 2026-04-27 14:29 | 48.19387 | 17.24738 | 1873 ft | 206 kts | 45° |
| 2026-04-27 14:29 | 48.20412 | 17.26279 | 2800 ft | 214 kts | 45° |
| 2026-04-27 14:29 | 48.21529 | 17.28005 | 3142 ft | 245 kts | 50° |
| 2026-04-27 14:30 | 48.22241 | 17.30310 | 3712 ft | 258 kts | 84° |
| 2026-04-27 14:30 | 48.22044 | 17.32763 | 4468 ft | 262 kts | 106° |
| 2026-04-27 14:30 | 48.21484 | 17.35391 | 5354 ft | 267 kts | 108° |
| 2026-04-27 14:31 | 48.20908 | 17.38084 | 6120 ft | 276 kts | 106° |
| 2026-04-27 14:31 | 48.20353 | 17.40892 | 6845 ft | 286 kts | 104° |
| 2026-04-27 14:31 | 48.19808 | 17.43790 | 7642 ft | 290 kts | 104° |
| 2026-04-27 14:31 | 48.19271 | 17.46722 | 8487 ft | 294 kts | 103° |
| 2026-04-27 14:32 | 48.18726 | 17.49699 | 9312 ft | 298 kts | 105° |
| 2026-04-27 14:32 | 48.17872 | 17.52561 | 10075 ft | 305 kts | 126° |
| 2026-04-27 14:32 | 48.16294 | 17.54714 | 10599 ft | 316 kts | 153° |
| 2026-04-27 14:32 | 48.14164 | 17.55774 | 10910 ft | 331 kts | 170° |
| 2026-04-27 14:33 | 48.11844 | 17.56442 | 11212 ft | 348 kts | 172° |
| 2026-04-27 14:33 | 48.09409 | 17.57111 | 11498 ft | 364 kts | 172° |
| 2026-04-27 14:33 | 48.06866 | 17.57837 | 11786 ft | 380 kts | 171° |
| 2026-04-27 14:33 | 48.04240 | 17.58608 | 12217 ft | 389 kts | 171° |
| 2026-04-27 14:34 | 48.01565 | 17.59401 | 12804 ft | 394 kts | 171° |
| 2026-04-27 14:34 | 47.98866 | 17.60209 | 13411 ft | 398 kts | 171° |
| 2026-04-27 14:34 | 47.96137 | 17.61027 | 14035 ft | 401 kts | 171° |
| 2026-04-27 14:34 | 47.93389 | 17.61855 | 14584 ft | 405 kts | 171° |
| 2026-04-27 14:35 | 47.90609 | 17.62690 | 15155 ft | 408 kts | 171° |
| 2026-04-27 14:35 | 47.87815 | 17.63530 | 15710 ft | 412 kts | 171° |
| 2026-04-27 14:35 | 47.84992 | 17.64378 | 16261 ft | 415 kts | 171° |
| 2026-04-27 14:35 | 47.82139 | 17.65190 | 16808 ft | 418 kts | 173° |
| 2026-04-27 14:36 | 47.79239 | 17.65433 | 17354 ft | 419 kts | 186° |
| 2026-04-27 14:36 | 47.76414 | 17.64713 | 17890 ft | 417 kts | 199° |
| 2026-04-27 14:36 | 47.73658 | 17.63336 | 18425 ft | 419 kts | 204° |
| 2026-04-27 14:36 | 47.70942 | 17.61705 | 18869 ft | 422 kts | 206° |
| 2026-04-27 14:37 | 47.68247 | 17.59959 | 19295 ft | 425 kts | 207° |
| 2026-04-27 14:37 | 47.65529 | 17.58165 | 19726 ft | 429 kts | 207° |
| 2026-04-27 14:37 | 47.62785 | 17.56367 | 20154 ft | 432 kts | 207° |
| 2026-04-27 14:37 | 47.60018 | 17.54585 | 20569 ft | 435 kts | 206° |
| 2026-04-27 14:38 | 47.57217 | 17.52811 | 20983 ft | 439 kts | 206° |
| 2026-04-27 14:38 | 47.54391 | 17.51044 | 21388 ft | 442 kts | 206° |
| 2026-04-27 14:38 | 47.51546 | 17.49276 | 21801 ft | 445 kts | 206° |
| 2026-04-27 14:38 | 47.48678 | 17.47500 | 22204 ft | 448 kts | 206° |
| 2026-04-27 14:39 | 47.45786 | 17.45713 | 22600 ft | 451 kts | 206° |
| 2026-04-27 14:39 | 47.42882 | 17.43920 | 22988 ft | 454 kts | 206° |
| 2026-04-27 14:39 | 47.39957 | 17.42115 | 23366 ft | 457 kts | 206° |
| 2026-04-27 14:39 | 47.37011 | 17.40297 | 23720 ft | 460 kts | 205° |
| 2026-04-27 14:40 | 47.33984 | 17.38691 | 24015 ft | 466 kts | 199° |
| 2026-04-27 14:40 | 47.30796 | 17.37700 | 24310 ft | 472 kts | 189° |
| 2026-04-27 14:40 | 47.27495 | 17.37500 | 24596 ft | 477 kts | 179° |
| 2026-04-27 14:40 | 47.24197 | 17.38201 | 24891 ft | 482 kts | 167° |
| 2026-04-27 14:41 | 47.21022 | 17.39827 | 25173 ft | 486 kts | 155° |
| 2026-04-27 14:41 | 47.18136 | 17.42297 | 25454 ft | 488 kts | 144° |
| 2026-04-27 14:41 | 47.15434 | 17.45336 | 25738 ft | 490 kts | 140° |
| 2026-04-27 14:41 | 47.12804 | 17.48563 | 26007 ft | 492 kts | 139° |
| 2026-04-27 14:42 | 47.10209 | 17.51865 | 26271 ft | 495 kts | 138° |
| 2026-04-27 14:42 | 47.07611 | 17.55193 | 26537 ft | 497 kts | 138° |
| 2026-04-27 14:42 | 47.04995 | 17.58517 | 26802 ft | 499 kts | 138° |
| 2026-04-27 14:42 | 47.02353 | 17.61838 | 27036 ft | 501 kts | 139° |
| 2026-04-27 14:43 | 46.99687 | 17.65153 | 27288 ft | 503 kts | 139° |
| 2026-04-27 14:43 | 46.97003 | 17.68465 | 27532 ft | 505 kts | 139° |
| 2026-04-27 14:43 | 46.94307 | 17.71779 | 27778 ft | 507 kts | 139° |
| 2026-04-27 14:43 | 46.91599 | 17.75097 | 28007 ft | 509 kts | 139° |
| 2026-04-27 14:44 | 46.88874 | 17.78432 | 28289 ft | 510 kts | 139° |
| 2026-04-27 14:44 | 46.86157 | 17.81752 | 28642 ft | 509 kts | 139° |
| 2026-04-27 14:44 | 46.83437 | 17.85073 | 28951 ft | 509 kts | 139° |
| 2026-04-27 14:44 | 46.80721 | 17.88386 | 29277 ft | 509 kts | 139° |
| 2026-04-27 14:45 | 46.78007 | 17.91691 | 29599 ft | 509 kts | 139° |
| 2026-04-27 14:45 | 46.75286 | 17.95003 | 29915 ft | 509 kts | 139° |
| 2026-04-27 14:45 | 46.73488 | 17.97191 | 30124 ft | 509 kts | 139° |
| 2026-04-27 14:45 | 46.70764 | 18.00498 | 30412 ft | 508 kts | 139° |
| 2026-04-27 14:46 | 46.68049 | 18.03791 | 30707 ft | 508 kts | 139° |
| 2026-04-27 14:46 | 46.65337 | 18.07075 | 31006 ft | 507 kts | 139° |
| 2026-04-27 14:46 | 46.62624 | 18.10356 | 31168 ft | 507 kts | 139° |
| 2026-04-27 14:47 | 46.57264 | 18.16822 | 31182 ft | 494 kts | 139° |
| 2026-04-27 14:47 | 46.52020 | 18.23135 | 31182 ft | 492 kts | 139° |
| 2026-04-27 14:48 | 46.46751 | 18.29462 | 31185 ft | 492 kts | 139° |
| 2026-04-27 14:48 | 46.38850 | 18.38921 | 31178 ft | 491 kts | 139° |
| 2026-04-27 14:49 | 46.33575 | 18.45213 | 31181 ft | 491 kts | 139° |
| 2026-04-27 14:49 | 46.28293 | 18.51496 | 31177 ft | 490 kts | 139° |
| 2026-04-27 14:50 | 46.23051 | 18.57717 | 31177 ft | 490 kts | 139° |
| 2026-04-27 14:50 | 46.17780 | 18.63957 | 31178 ft | 490 kts | 139° |
| 2026-04-27 14:51 | 46.12506 | 18.70184 | 31177 ft | 489 kts | 139° |
| 2026-04-27 14:51 | 46.07242 | 18.76385 | 31177 ft | 489 kts | 139° |
| 2026-04-27 14:52 | 46.01976 | 18.82570 | 31178 ft | 488 kts | 139° |
| 2026-04-27 14:52 | 45.96708 | 18.88743 | 31173 ft | 488 kts | 139° |
| 2026-04-27 14:53 | 45.91479 | 18.94942 | 31174 ft | 487 kts | 137° |
| 2026-04-27 14:53 | 45.86435 | 19.01338 | 31173 ft | 486 kts | 136° |
| 2026-04-27 14:54 | 45.81409 | 19.07808 | 31170 ft | 485 kts | 136° |
| 2026-04-27 14:54 | 45.76364 | 19.14250 | 31170 ft | 485 kts | 137° |
| 2026-04-27 14:55 | 45.71310 | 19.20651 | 31173 ft | 484 kts | 137° |
| 2026-04-27 14:55 | 45.66255 | 19.27026 | 31172 ft | 484 kts | 137° |
| 2026-04-27 14:56 | 45.61198 | 19.33387 | 31168 ft | 484 kts | 137° |
| 2026-04-27 14:56 | 45.56145 | 19.39729 | 31168 ft | 484 kts | 138° |
| 2026-04-27 14:57 | 45.51088 | 19.46062 | 31166 ft | 484 kts | 138° |
| 2026-04-27 14:57 | 45.46026 | 19.52386 | 31166 ft | 483 kts | 138° |
| 2026-04-27 14:58 | 45.40971 | 19.58685 | 31167 ft | 483 kts | 139° |
| 2026-04-27 14:58 | 45.35914 | 19.64970 | 31171 ft | 482 kts | 139° |
| 2026-04-27 14:59 | 45.30922 | 19.71160 | 31165 ft | 472 kts | 139° |
| 2026-04-27 14:59 | 45.25998 | 19.77252 | 31167 ft | 468 kts | 139° |
| 2026-04-27 15:00 | 45.21085 | 19.83313 | 31171 ft | 468 kts | 139° |
| 2026-04-27 15:00 | 45.16168 | 19.89365 | 31173 ft | 468 kts | 140° |
| 2026-04-27 15:01 | 45.11248 | 19.95406 | 31167 ft | 467 kts | 140° |
| 2026-04-27 15:01 | 45.06341 | 20.01419 | 31163 ft | 466 kts | 140° |
| 2026-04-27 15:02 | 45.01436 | 20.07416 | 31158 ft | 466 kts | 140° |
| 2026-04-27 15:02 | 44.96561 | 20.13362 | 31157 ft | 465 kts | 140° |
| 2026-04-27 15:03 | 44.91659 | 20.19324 | 31157 ft | 465 kts | 140° |
| 2026-04-27 15:03 | 44.86755 | 20.25276 | 31158 ft | 465 kts | 140° |
| 2026-04-27 15:04 | 44.81852 | 20.31210 | 31158 ft | 464 kts | 140° |
| 2026-04-27 15:04 | 44.76926 | 20.37101 | 31158 ft | 464 kts | 141° |
| 2026-04-27 15:05 | 44.71992 | 20.42957 | 31155 ft | 464 kts | 141° |
| 2026-04-27 15:05 | 44.67054 | 20.48804 | 31158 ft | 464 kts | 141° |
| 2026-04-27 15:06 | 44.62121 | 20.54641 | 31155 ft | 464 kts | 141° |
| 2026-04-27 15:06 | 44.57187 | 20.60471 | 31154 ft | 463 kts | 142° |
| 2026-04-27 15:07 | 44.52258 | 20.66279 | 31151 ft | 463 kts | 142° |
| 2026-04-27 15:07 | 44.47324 | 20.72077 | 31153 ft | 462 kts | 142° |
| 2026-04-27 15:08 | 44.42391 | 20.77862 | 31145 ft | 462 kts | 142° |
| 2026-04-27 15:08 | 44.37489 | 20.83597 | 31148 ft | 462 kts | 142° |
| 2026-04-27 15:09 | 44.32552 | 20.89360 | 31148 ft | 462 kts | 143° |
| 2026-04-27 15:09 | 44.27613 | 20.95112 | 31146 ft | 462 kts | 143° |
| 2026-04-27 15:10 | 44.22676 | 21.00849 | 31145 ft | 462 kts | 143° |
| 2026-04-27 15:10 | 44.17730 | 21.06584 | 31143 ft | 462 kts | 143° |
| 2026-04-27 15:11 | 44.12778 | 21.12313 | 31145 ft | 462 kts | 143° |
| 2026-04-27 15:11 | 44.07829 | 21.18026 | 31143 ft | 462 kts | 143° |
| 2026-04-27 15:12 | 44.02883 | 21.23722 | 31142 ft | 462 kts | 143° |
| 2026-04-27 15:12 | 43.97936 | 21.29406 | 31144 ft | 460 kts | 143° |
| 2026-04-27 15:13 | 43.93005 | 21.35062 | 31142 ft | 459 kts | 143° |
| 2026-04-27 15:13 | 43.88106 | 21.40664 | 31145 ft | 460 kts | 143° |
| 2026-04-27 15:14 | 43.83175 | 21.46292 | 31145 ft | 460 kts | 143° |
| 2026-04-27 15:14 | 43.78229 | 21.51922 | 31143 ft | 460 kts | 143° |
| 2026-04-27 15:15 | 43.73289 | 21.57536 | 31142 ft | 460 kts | 143° |
| 2026-04-27 15:15 | 43.68472 | 21.63382 | 31144 ft | 463 kts | 134° |
| 2026-04-27 15:16 | 43.64283 | 21.70166 | 31137 ft | 464 kts | 131° |
| 2026-04-27 15:16 | 43.60153 | 21.77016 | 31141 ft | 464 kts | 131° |
| 2026-04-27 15:17 | 43.56027 | 21.83865 | 31137 ft | 464 kts | 131° |
| 2026-04-27 15:17 | 43.51899 | 21.90705 | 31136 ft | 464 kts | 131° |
| 2026-04-27 15:18 | 43.47769 | 21.97533 | 31134 ft | 464 kts | 131° |
| 2026-04-27 15:18 | 43.43631 | 22.04357 | 31133 ft | 464 kts | 131° |
| 2026-04-27 15:19 | 43.39486 | 22.11176 | 31139 ft | 469 kts | 131° |
| 2026-04-27 15:19 | 43.35292 | 22.18062 | 30818 ft | 462 kts | 131° |
| 2026-04-27 15:20 | 43.33244 | 22.21421 | 29725 ft | 458 kts | 131° |
| 2026-04-27 15:20 | 43.31193 | 22.24780 | 28368 ft | 459 kts | 131° |
| 2026-04-27 15:20 | 43.29146 | 22.28126 | 27539 ft | 454 kts | 131° |
| 2026-04-27 15:20 | 43.27152 | 22.31384 | 26733 ft | 449 kts | 131° |
| 2026-04-27 15:21 | 43.25130 | 22.34685 | 26002 ft | 443 kts | 132° |
| 2026-04-27 15:21 | 43.23185 | 22.37853 | 25257 ft | 437 kts | 132° |
| 2026-04-27 15:21 | 43.21237 | 22.41025 | 24524 ft | 433 kts | 132° |
| 2026-04-27 15:21 | 43.19315 | 22.44150 | 23885 ft | 427 kts | 132° |
| 2026-04-27 15:22 | 43.17382 | 22.47291 | 23053 ft | 423 kts | 132° |
| 2026-04-27 15:22 | 43.15532 | 22.50291 | 22357 ft | 415 kts | 132° |
| 2026-04-27 15:22 | 43.13673 | 22.53301 | 21587 ft | 412 kts | 131° |
| 2026-04-27 15:22 | 43.11836 | 22.56276 | 20894 ft | 407 kts | 131° |
| 2026-04-27 15:23 | 43.10019 | 22.59214 | 20188 ft | 402 kts | 131° |
| 2026-04-27 15:23 | 43.08222 | 22.62117 | 19487 ft | 397 kts | 131° |
| 2026-04-27 15:23 | 43.06446 | 22.64984 | 18654 ft | 393 kts | 131° |
| 2026-04-27 15:23 | 43.04690 | 22.67816 | 17813 ft | 387 kts | 130° |
| 2026-04-27 15:24 | 43.02961 | 22.70603 | 16885 ft | 383 kts | 130° |
| 2026-04-27 15:24 | 43.01246 | 22.73361 | 16023 ft | 378 kts | 130° |
| 2026-04-27 15:24 | 42.99554 | 22.76082 | 15147 ft | 374 kts | 130° |
| 2026-04-27 15:24 | 42.97878 | 22.78772 | 14399 ft | 368 kts | 131° |
| 2026-04-27 15:25 | 42.95911 | 22.80960 | 13441 ft | 367 kts | 151° |
| 2026-04-27 15:25 | 42.93639 | 22.82479 | 12629 ft | 361 kts | 155° |
| 2026-04-27 15:25 | 42.91373 | 22.83922 | 11824 ft | 356 kts | 156° |
| 2026-04-27 15:25 | 42.89146 | 22.85365 | 11083 ft | 351 kts | 156° |
| 2026-04-27 15:26 | 42.86961 | 22.86804 | 10417 ft | 347 kts | 156° |
| 2026-04-27 15:26 | 42.84826 | 22.88227 | 10120 ft | 333 kts | 156° |
| 2026-04-27 15:26 | 42.82813 | 22.89582 | 10022 ft | 313 kts | 156° |
| 2026-04-27 15:26 | 42.80897 | 22.90872 | 9664 ft | 304 kts | 156° |
| 2026-04-27 15:27 | 42.79004 | 22.92142 | 9165 ft | 301 kts | 156° |
| 2026-04-27 15:27 | 42.77134 | 22.93395 | 8635 ft | 299 kts | 155° |
| 2026-04-27 15:27 | 42.75281 | 22.94640 | 8169 ft | 295 kts | 155° |
| 2026-04-27 15:27 | 42.73550 | 22.96094 | 7710 ft | 291 kts | 138° |
| 2026-04-27 15:28 | 42.72419 | 22.98310 | 7270 ft | 285 kts | 110° |
| 2026-04-27 15:28 | 42.72007 | 23.00855 | 7021 ft | 273 kts | 94° |
| 2026-04-27 15:28 | 42.71893 | 23.03369 | 6854 ft | 260 kts | 91° |
| 2026-04-27 15:28 | 42.71806 | 23.05797 | 6659 ft | 255 kts | 93° |
| 2026-04-27 15:29 | 42.71670 | 23.08185 | 6380 ft | 253 kts | 94° |
| 2026-04-27 15:29 | 42.71511 | 23.10565 | 6036 ft | 253 kts | 94° |
| 2026-04-27 15:29 | 42.71364 | 23.12948 | 5678 ft | 254 kts | 94° |
| 2026-04-27 15:29 | 42.71221 | 23.15352 | 5324 ft | 256 kts | 94° |
| 2026-04-27 15:30 | 42.71078 | 23.17776 | 4980 ft | 257 kts | 94° |
| 2026-04-27 15:30 | 42.70935 | 23.20139 | 4647 ft | 244 kts | 94° |
| 2026-04-27 15:30 | 42.70799 | 23.22400 | 4303 ft | 236 kts | 94° |
| 2026-04-27 15:30 | 42.70669 | 23.24585 | 3985 ft | 227 kts | 94° |
| 2026-04-27 15:31 | 42.70541 | 23.26683 | 3690 ft | 218 kts | 94° |
| 2026-04-27 15:31 | 42.70423 | 23.28715 | 3405 ft | 213 kts | 94° |
| 2026-04-27 15:31 | 42.70307 | 23.30665 | 3098 ft | 201 kts | 94° |
| 2026-04-27 15:31 | 42.70197 | 23.32493 | 2836 ft | 188 kts | 94° |
| 2026-04-27 15:32 | 42.70097 | 23.34164 | 2596 ft | 171 kts | 92° |
| 2026-04-27 15:32 | 42.70008 | 23.35694 | 2331 ft | 155 kts | 93° |
| 2026-04-27 15:32 | 42.69927 | 23.37081 | 2097 ft | 140 kts | 92° |
| 2026-04-27 15:32 | 42.69851 | 23.38421 | 1970 ft | 145 kts | 93° |
| 2026-04-27 15:33 | 42.69767 | 23.39788 | 1799 ft | 145 kts | 94° |
| 2026-04-27 15:33 | 42.69685 | 23.41105 | 1756 ft | 123 kts | 94° |
| 2026-04-27 15:33 | 42.69636 | 23.41929 | 1748 ft | 61 kts | 93° |
| 2026-04-27 15:33 | 42.69601 | 23.42424 | 1752 ft | 48 kts | 106° |
| 2026-04-27 15:34 | 42.69513 | 23.42689 | 1755 ft | 22 kts | 126° |
| 2026-04-27 15:34 | 42.69417 | 23.42708 | 1753 ft | 15 kts | 255° |
| 2026-04-27 15:34 | 42.69405 | 23.42622 | 1750 ft | 13 kts | 269° |
| 2026-04-27 15:34 | 42.69412 | 23.42505 | 1751 ft | 12 kts | 275° |
| 2026-04-27 15:35 | 42.69418 | 23.42398 | 1755 ft | 12 kts | 275° |
| 2026-04-27 15:35 | 42.69425 | 23.42282 | 1757 ft | 13 kts | 275° |
| 2026-04-27 15:35 | 42.69434 | 23.42152 | 1757 ft | 15 kts | 275° |
| 2026-04-27 15:35 | 42.69442 | 23.42006 | 1754 ft | 16 kts | 274° |
| 2026-04-27 15:36 | 42.69451 | 23.41851 | 1747 ft | 17 kts | 274° |
| 2026-04-27 15:36 | 42.69460 | 23.41685 | 1756 ft | 18 kts | 274° |
| 2026-04-27 15:36 | 42.69468 | 23.41510 | 1756 ft | 19 kts | 274° |
| 2026-04-27 15:36 | 42.69482 | 23.41335 | 1749 ft | 18 kts | 275° |
| 2026-04-27 15:37 | 42.69493 | 23.41175 | 1753 ft | 16 kts | 275° |
| 2026-04-27 15:37 | 42.69502 | 23.41028 | 1755 ft | 15 kts | 275° |
| 2026-04-27 15:37 | 42.69511 | 23.40895 | 1744 ft | 13 kts | 275° |
| 2026-04-27 15:37 | 42.69517 | 23.40773 | 1753 ft | 12 kts | 274° |
| 2026-04-27 15:38 | 42.69523 | 23.40666 | 1746 ft | 11 kts | 274° |
| 2026-04-27 15:38 | 42.69528 | 23.40567 | 1749 ft | 11 kts | 274° |
| 2026-04-27 15:38 | 42.69494 | 23.40480 | 1749 ft | 14 kts | 210° |
| 2026-04-27 15:38 | 42.69378 | 23.40431 | 1747 ft | 20 kts | 197° |
| 2026-04-27 15:39 | 42.69243 | 23.40375 | 1753 ft | 20 kts | 197° |
| 2026-04-27 15:39 | 42.69169 | 23.40278 | 1755 ft | 14 kts | 274° |
| 2026-04-27 15:39 | 42.69189 | 23.40155 | 1751 ft | 12 kts | 285° |
| 2026-04-27 15:39 | 42.69152 | 23.40095 | 1750 ft | 8 kts | 197° |
| 2026-04-27 15:40 | 42.69128 | 23.40086 | 1748 ft | 0 kts | 197° |